sensor_id;sensor_type;location;lat;lon;timestamp;pressure;altitude;pressure_sealevel;temperature;humidity
21781;BME280;52576;53.614;9.894;2023-10-08T00:00:55;101838.41;;;10.59;100.00
21781;BME280;52576;53.614;9.894;2023-10-08T00:02:59;101841.88;;;10.60;100.00
21781;BME280;52576;53.614;9.894;2023-10-08T00:05:08;101850.53;;;10.62;100.00
21781;BME280;52576;53.614;9.894;2023-10-08T00:07:12;101856.63;;;10.62;100.00
21781;BME280;52576;53.614;9.894;2023-10-08T00:09:15;101859.16;;;10.64;100.00
21781;BME280;52576;53.614;9.894;2023-10-08T00:11:17;101860.00;;;10.64;100.00
21781;BME280;52576;53.614;9.894;2023-10-08T00:13:27;101854.84;;;10.63;100.00
21781;BME280;52576;53.614;9.894;2023-10-08T00:15:33;101839.97;;;10.63;100.00
21781;BME280;52576;53.614;9.894;2023-10-08T00:17:37;101846.13;;;10.62;100.00
21781;BME280;52576;53.614;9.894;2023-10-08T00:19:41;101845.19;;;10.63;100.00
21781;BME280;52576;53.614;9.894;2023-10-08T00:21:44;101840.88;;;10.62;100.00
21781;BME280;52576;53.614;9.894;2023-10-08T00:23:50;101840.03;;;10.62;100.00
21781;BME280;52576;53.614;9.894;2023-10-08T00:25:55;101855.75;;;10.62;100.00
21781;BME280;52576;53.614;9.894;2023-10-08T00:27:59;101850.59;;;10.60;100.00
21781;BME280;52576;53.614;9.894;2023-10-08T00:30:04;101851.53;;;10.59;100.00
21781;BME280;52576;53.614;9.894;2023-10-08T00:32:21;101861.16;;;10.59;100.00
21781;BME280;52576;53.614;9.894;2023-10-08T00:34:24;101868.25;;;10.57;100.00
21781;BME280;52576;53.614;9.894;2023-10-08T00:36:29;101882.28;;;10.56;100.00
21781;BME280;52576;53.614;9.894;2023-10-08T00:38:31;101891.97;;;10.53;100.00
21781;BME280;52576;53.614;9.894;2023-10-08T00:40:37;101896.44;;;10.51;100.00
21781;BME280;52576;53.614;9.894;2023-10-08T00:42:41;101906.94;;;10.51;100.00
21781;BME280;52576;53.614;9.894;2023-10-08T00:44:47;101920.97;;;10.50;100.00
21781;BME280;52576;53.614;9.894;2023-10-08T00:46:53;101919.25;;;10.49;100.00
21781;BME280;52576;53.614;9.894;2023-10-08T00:49:00;101921.88;;;10.49;100.00
21781;BME280;52576;53.614;9.894;2023-10-08T00:51:22;101928.06;;;10.48;100.00
21781;BME280;52576;53.614;9.894;2023-10-08T00:53:42;101927.13;;;10.49;100.00
21781;BME280;52576;53.614;9.894;2023-10-08T00:55:47;101907.09;;;10.48;100.00
21781;BME280;52576;53.614;9.894;2023-10-08T00:57:57;101895.69;;;10.49;100.00
21781;BME280;52576;53.614;9.894;2023-10-08T01:00:11;101900.00;;;10.50;100.00
21781;BME280;52576;53.614;9.894;2023-10-08T01:02:25;101901.69;;;10.51;100.00
21781;BME280;52576;53.614;9.894;2023-10-08T01:04:31;101895.53;;;10.52;100.00
21781;BME280;52576;53.614;9.894;2023-10-08T01:06:35;101898.16;;;10.52;100.00
21781;BME280;52576;53.614;9.894;2023-10-08T01:08:41;101908.63;;;10.52;100.00
21781;BME280;52576;53.614;9.894;2023-10-08T01:10:52;101913.88;;;10.52;100.00
21781;BME280;52576;53.614;9.894;2023-10-08T01:13:03;101912.09;;;10.53;100.00
21781;BME280;52576;53.614;9.894;2023-10-08T01:15:08;101912.09;;;10.53;100.00
21781;BME280;52576;53.614;9.894;2023-10-08T01:17:20;101921.66;;;10.54;100.00
21781;BME280;52576;53.614;9.894;2023-10-08T01:19:26;101917.28;;;10.54;100.00
21781;BME280;52576;53.614;9.894;2023-10-08T01:21:31;101923.44;;;10.53;100.00
21781;BME280;52576;53.614;9.894;2023-10-08T01:23:38;101926.91;;;10.54;100.00
21781;BME280;52576;53.614;9.894;2023-10-08T01:25:42;101926.91;;;10.54;100.00
21781;BME280;52576;53.614;9.894;2023-10-08T01:27:55;101927.75;;;10.54;100.00
21781;BME280;52576;53.614;9.894;2023-10-08T01:29:58;101933.00;;;10.54;100.00
21781;BME280;52576;53.614;9.894;2023-10-08T01:32:20;101934.72;;;10.56;100.00
21781;BME280;52576;53.614;9.894;2023-10-08T01:34:36;101930.31;;;10.56;100.00
21781;BME280;52576;53.614;9.894;2023-10-08T01:36:40;101923.44;;;10.53;100.00
21781;BME280;52576;53.614;9.894;2023-10-08T01:38:47;101928.69;;;10.53;100.00
21781;BME280;52576;53.614;9.894;2023-10-08T01:40:51;101934.84;;;10.52;100.00
21781;BME280;52576;53.614;9.894;2023-10-08T01:42:54;101940.09;;;10.52;100.00
21781;BME280;52576;53.614;9.894;2023-10-08T01:45:01;101942.72;;;10.52;100.00
21781;BME280;52576;53.614;9.894;2023-10-08T01:47:08;101942.78;;;10.51;100.00
21781;BME280;52576;53.614;9.894;2023-10-08T01:49:13;101941.88;;;10.52;100.00
21781;BME280;52576;53.614;9.894;2023-10-08T01:51:17;101935.69;;;10.53;100.00
21781;BME280;52576;53.614;9.894;2023-10-08T01:53:27;101931.31;;;10.53;100.00
21781;BME280;52576;53.614;9.894;2023-10-08T01:55:32;101916.44;;;10.54;100.00
21781;BME280;52576;53.614;9.894;2023-10-08T01:57:47;101907.72;;;10.53;100.00
21781;BME280;52576;53.614;9.894;2023-10-08T01:59:51;101906.78;;;10.54;100.00
21781;BME280;52576;53.614;9.894;2023-10-08T02:01:54;101896.31;;;10.54;100.00
21781;BME280;52576;53.614;9.894;2023-10-08T02:03:59;101897.94;;;10.57;100.00
21781;BME280;52576;53.614;9.894;2023-10-08T02:06:01;101896.16;;;10.58;100.00
21781;BME280;52576;53.614;9.894;2023-10-08T02:08:08;101894.47;;;10.57;100.00
21781;BME280;52576;53.614;9.894;2023-10-08T02:10:11;101893.53;;;10.58;100.00
21781;BME280;52576;53.614;9.894;2023-10-08T02:12:17;101898.84;;;10.56;100.00
21781;BME280;52576;53.614;9.894;2023-10-08T02:14:20;101891.84;;;10.57;100.00
21781;BME280;52576;53.614;9.894;2023-10-08T02:16:24;101901.53;;;10.54;100.00
21781;BME280;52576;53.614;9.894;2023-10-08T02:18:29;101906.78;;;10.54;100.00
21781;BME280;52576;53.614;9.894;2023-10-08T02:20:33;101927.75;;;10.54;100.00
21781;BME280;52576;53.614;9.894;2023-10-08T02:22:35;101929.59;;;10.52;100.00
21781;BME280;52576;53.614;9.894;2023-10-08T02:24:39;101922.66;;;10.51;100.00
21781;BME280;52576;53.614;9.894;2023-10-08T02:26:44;101922.81;;;10.48;100.00
21781;BME280;52576;53.614;9.894;2023-10-08T02:28:49;101944.69;;;10.47;100.00
21781;BME280;52576;53.614;9.894;2023-10-08T02:30:54;101947.47;;;10.44;100.00
21781;BME280;52576;53.614;9.894;2023-10-08T02:32:57;101945.75;;;10.43;100.00
21781;BME280;52576;53.614;9.894;2023-10-08T02:35:00;101949.31;;;10.42;100.00
21781;BME280;52576;53.614;9.894;2023-10-08T02:37:04;101954.72;;;10.39;100.00
21781;BME280;52576;53.614;9.894;2023-10-08T02:39:08;101958.25;;;10.38;100.00
21781;BME280;52576;53.614;9.894;2023-10-08T02:41:16;101969.66;;;10.37;100.00
21781;BME280;52576;53.614;9.894;2023-10-08T02:43:19;101968.88;;;10.35;100.00
21781;BME280;52576;53.614;9.894;2023-10-08T02:45:24;101977.72;;;10.33;100.00
21781;BME280;52576;53.614;9.894;2023-10-08T02:47:27;101983.03;;;10.31;99.89
21781;BME280;52576;53.614;9.894;2023-10-08T02:49:30;101990.13;;;10.29;100.00
21781;BME280;52576;53.614;9.894;2023-10-08T02:51:33;101985.81;;;10.28;99.98
21781;BME280;52576;53.614;9.894;2023-10-08T02:53:36;101972.84;;;10.25;99.80
21781;BME280;52576;53.614;9.894;2023-10-08T02:55:40;101983.31;;;10.25;100.00
21781;BME280;52576;53.614;9.894;2023-10-08T02:57:46;101988.63;;;10.24;99.81
21781;BME280;52576;53.614;9.894;2023-10-08T02:59:52;101981.75;;;10.21;99.87
21781;BME280;52576;53.614;9.894;2023-10-08T03:01:58;101996.63;;;10.20;99.49
21781;BME280;52576;53.614;9.894;2023-10-08T03:04:01;101999.31;;;10.19;99.46
21781;BME280;52576;53.614;9.894;2023-10-08T03:06:06;102002.81;;;10.18;99.32
21781;BME280;52576;53.614;9.894;2023-10-08T03:08:13;102001.13;;;10.17;99.31
21781;BME280;52576;53.614;9.894;2023-10-08T03:10:15;102001.19;;;10.15;99.28
21781;BME280;52576;53.614;9.894;2023-10-08T03:12:20;102001.25;;;10.14;99.06
21781;BME280;52576;53.614;9.894;2023-10-08T03:14:27;102001.25;;;10.14;99.33
21781;BME280;52576;53.614;9.894;2023-10-08T03:16:44;101997.88;;;10.12;99.17
21781;BME280;52576;53.614;9.894;2023-10-08T03:18:51;102002.34;;;10.10;99.14
21781;BME280;52576;53.614;9.894;2023-10-08T03:20:56;102016.34;;;10.09;99.08
21781;BME280;52576;53.614;9.894;2023-10-08T03:23:05;102019.91;;;10.08;98.87
21781;BME280;52576;53.614;9.894;2023-10-08T03:25:15;102013.88;;;10.06;99.01
21781;BME280;52576;53.614;9.894;2023-10-08T03:27:22;102011.31;;;10.04;99.06
21781;BME280;52576;53.614;9.894;2023-10-08T03:29:28;102019.25;;;10.03;99.01
21781;BME280;52576;53.614;9.894;2023-10-08T03:31:33;102025.41;;;10.02;99.07
21781;BME280;52576;53.614;9.894;2023-10-08T03:33:55;102027.16;;;10.01;99.05
21781;BME280;52576;53.614;9.894;2023-10-08T03:35:58;102026.31;;;10.01;99.16
21781;BME280;52576;53.614;9.894;2023-10-08T03:38:02;102027.31;;;9.98;98.97
21781;BME280;52576;53.614;9.894;2023-10-08T03:40:19;102044.78;;;9.98;98.86
21781;BME280;52576;53.614;9.894;2023-10-08T03:42:34;102046.56;;;9.97;99.00
21781;BME280;52576;53.614;9.894;2023-10-08T03:44:42;102038.81;;;9.94;98.74
21781;BME280;52576;53.614;9.894;2023-10-08T03:46:45;102055.47;;;9.93;98.69
21781;BME280;52576;53.614;9.894;2023-10-08T03:48:50;102058.16;;;9.92;98.50
21781;BME280;52576;53.614;9.894;2023-10-08T03:50:55;102038.25;;;9.87;98.32
21781;BME280;52576;53.614;9.894;2023-10-08T03:53:08;102032.25;;;9.85;98.46
21781;BME280;52576;53.614;9.894;2023-10-08T03:55:13;102031.47;;;9.83;98.26
21781;BME280;52576;53.614;9.894;2023-10-08T03:57:23;102040.28;;;9.81;98.31
21781;BME280;52576;53.614;9.894;2023-10-08T03:59:43;102030.81;;;9.78;98.57
21781;BME280;52576;53.614;9.894;2023-10-08T04:01:50;102027.41;;;9.76;98.58
21781;BME280;52576;53.614;9.894;2023-10-08T04:03:56;102036.16;;;9.75;98.40
21781;BME280;52576;53.614;9.894;2023-10-08T04:06:04;102050.19;;;9.74;98.66
21781;BME280;52576;53.614;9.894;2023-10-08T04:08:16;102071.13;;;9.74;98.79
21781;BME280;52576;53.614;9.894;2023-10-08T04:10:20;102065.88;;;9.74;98.74
21781;BME280;52576;53.614;9.894;2023-10-08T04:12:41;102059.78;;;9.74;98.85
21781;BME280;52576;53.614;9.894;2023-10-08T04:14:46;102046.72;;;9.74;98.85
21781;BME280;52576;53.614;9.894;2023-10-08T04:16:50;102044.94;;;9.74;99.06
21781;BME280;52576;53.614;9.894;2023-10-08T04:18:54;102046.66;;;9.75;98.87
21781;BME280;52576;53.614;9.894;2023-10-08T04:20:57;102051.88;;;9.75;98.75
21781;BME280;52576;53.614;9.894;2023-10-08T04:23:15;102066.88;;;9.72;98.57
21781;BME280;52576;53.614;9.894;2023-10-08T04:25:23;102066.94;;;9.70;98.52
21781;BME280;52576;53.614;9.894;2023-10-08T04:27:26;102060.91;;;9.68;98.49
21781;BME280;52576;53.614;9.894;2023-10-08T04:29:32;102070.59;;;9.66;98.36
21781;BME280;52576;53.614;9.894;2023-10-08T04:31:38;102081.97;;;9.65;98.35
21781;BME280;52576;53.614;9.894;2023-10-08T04:33:45;102083.81;;;9.63;98.39
21781;BME280;52576;53.614;9.894;2023-10-08T04:35:49;102091.72;;;9.62;98.49
21781;BME280;52576;53.614;9.894;2023-10-08T04:37:53;102101.38;;;9.61;98.63
21781;BME280;52576;53.614;9.894;2023-10-08T04:39:58;102102.28;;;9.60;98.66
21781;BME280;52576;53.614;9.894;2023-10-08T04:42:02;102111.84;;;9.61;98.48
21781;BME280;52576;53.614;9.894;2023-10-08T04:44:09;102117.06;;;9.61;98.54
21781;BME280;52576;53.614;9.894;2023-10-08T04:46:16;102111.03;;;9.59;98.54
21781;BME280;52576;53.614;9.894;2023-10-08T04:48:36;102099.66;;;9.60;98.62
21781;BME280;52576;53.614;9.894;2023-10-08T04:50:39;102097.97;;;9.59;98.53
21781;BME280;52576;53.614;9.894;2023-10-08T04:52:46;102116.28;;;9.59;98.32
21781;BME280;52576;53.614;9.894;2023-10-08T04:55:01;102110.19;;;9.59;98.32
21781;BME280;52576;53.614;9.894;2023-10-08T04:57:17;102102.34;;;9.59;98.49
21781;BME280;52576;53.614;9.894;2023-10-08T04:59:24;102102.34;;;9.59;98.30
21781;BME280;52576;53.614;9.894;2023-10-08T05:01:34;102105.03;;;9.57;98.17
21781;BME280;52576;53.614;9.894;2023-10-08T05:03:50;102108.56;;;9.56;98.13
21781;BME280;52576;53.614;9.894;2023-10-08T05:06:37;102108.56;;;9.56;98.02
21781;BME280;52576;53.614;9.894;2023-10-08T05:08:52;102116.47;;;9.55;98.06
21781;BME280;52576;53.614;9.894;2023-10-08T05:11:01;102113.91;;;9.53;98.05
21781;BME280;52576;53.614;9.894;2023-10-08T05:13:16;102128.75;;;9.52;98.18
21781;BME280;52576;53.614;9.894;2023-10-08T05:15:18;102123.66;;;9.49;98.24
21781;BME280;52576;53.614;9.894;2023-10-08T05:17:35;102115.00;;;9.47;98.34
21781;BME280;52576;53.614;9.894;2023-10-08T05:19:49;102129.84;;;9.47;98.17
21781;BME280;52576;53.614;9.894;2023-10-08T05:22:04;102134.34;;;9.43;98.41
21781;BME280;52576;53.614;9.894;2023-10-08T05:24:20;102130.03;;;9.42;98.48
21781;BME280;52576;53.614;9.894;2023-10-08T05:26:29;102140.56;;;9.41;98.24
21781;BME280;52576;53.614;9.894;2023-10-08T05:28:43;102132.78;;;9.39;98.36
21781;BME280;52576;53.614;9.894;2023-10-08T05:31:07;102132.84;;;9.38;98.33
21781;BME280;52576;53.614;9.894;2023-10-08T05:33:23;102144.22;;;9.37;98.36
21781;BME280;52576;53.614;9.894;2023-10-08T05:35:27;102152.97;;;9.36;98.32
21781;BME280;52576;53.614;9.894;2023-10-08T05:37:34;102148.69;;;9.35;98.23
21781;BME280;52576;53.614;9.894;2023-10-08T05:39:43;102154.81;;;9.34;98.18
21781;BME280;52576;53.614;9.894;2023-10-08T05:41:56;102160.06;;;9.34;98.24
21781;BME280;52576;53.614;9.894;2023-10-08T05:44:14;102153.13;;;9.33;98.52
21781;BME280;52576;53.614;9.894;2023-10-08T05:46:26;102161.78;;;9.35;98.46
21781;BME280;52576;53.614;9.894;2023-10-08T05:48:50;102159.16;;;9.35;98.45
21781;BME280;52576;53.614;9.894;2023-10-08T05:51:06;102154.81;;;9.34;98.52
21781;BME280;52576;53.614;9.894;2023-10-08T05:53:16;102173.16;;;9.34;98.50
21781;BME280;52576;53.614;9.894;2023-10-08T05:55:32;102170.66;;;9.31;98.53
21781;BME280;52576;53.614;9.894;2023-10-08T05:57:49;102168.16;;;9.28;98.46
21781;BME280;52576;53.614;9.894;2023-10-08T05:59:54;102163.94;;;9.24;98.16
21781;BME280;52576;53.614;9.894;2023-10-08T06:02:11;102168.44;;;9.20;98.22
21781;BME280;52576;53.614;9.894;2023-10-08T06:04:39;102169.41;;;9.17;98.32
21781;BME280;52576;53.614;9.894;2023-10-08T06:06:55;102176.44;;;9.15;98.24
21781;BME280;52576;53.614;9.894;2023-10-08T06:09:13;102187.03;;;9.12;98.11
21781;BME280;52576;53.614;9.894;2023-10-08T06:11:37;102193.16;;;9.11;98.21
21781;BME280;52576;53.614;9.894;2023-10-08T06:13:46;102199.31;;;9.10;98.10
21781;BME280;52576;53.614;9.894;2023-10-08T06:15:57;102202.88;;;9.09;98.34
21781;BME280;52576;53.614;9.894;2023-10-08T06:18:10;102208.09;;;9.09;98.47
21781;BME280;52576;53.614;9.894;2023-10-08T06:20:17;102208.09;;;9.09;98.66
21781;BME280;52576;53.614;9.894;2023-10-08T06:22:26;102211.47;;;9.11;98.50
21781;BME280;52576;53.614;9.894;2023-10-08T06:24:29;102216.72;;;9.11;98.52
21781;BME280;52576;53.614;9.894;2023-10-08T06:26:36;102220.25;;;9.10;98.45
21781;BME280;52576;53.614;9.894;2023-10-08T06:28:45;102221.94;;;9.11;98.57
21781;BME280;52576;53.614;9.894;2023-10-08T06:30:49;102234.13;;;9.12;98.48
21781;BME280;52576;53.614;9.894;2023-10-08T06:32:56;102234.13;;;9.12;98.58
21781;BME280;52576;53.614;9.894;2023-10-08T06:34:59;102233.22;;;9.13;98.63
21781;BME280;52576;53.614;9.894;2023-10-08T06:37:05;102232.28;;;9.14;98.59
21781;BME280;52576;53.614;9.894;2023-10-08T06:39:10;102234.00;;;9.15;98.50
21781;BME280;52576;53.614;9.894;2023-10-08T06:41:20;102242.69;;;9.16;98.56
21781;BME280;52576;53.614;9.894;2023-10-08T06:43:51;102242.66;;;9.17;98.38
21781;BME280;52576;53.614;9.894;2023-10-08T06:46:04;102247.88;;;9.17;98.52
21781;BME280;52576;53.614;9.894;2023-10-08T06:48:09;102251.25;;;9.21;98.56
21781;BME280;52576;53.614;9.894;2023-10-08T06:50:20;102266.78;;;9.26;98.56
21781;BME280;52576;53.614;9.894;2023-10-08T06:52:24;102266.72;;;9.27;98.59
21781;BME280;52576;53.614;9.894;2023-10-08T06:54:28;102259.59;;;9.31;98.50
21781;BME280;52576;53.614;9.894;2023-10-08T06:56:36;102259.50;;;9.34;98.26
21781;BME280;52576;53.614;9.894;2023-10-08T06:58:41;102275.06;;;9.37;98.25
21781;BME280;52576;53.614;9.894;2023-10-08T07:00:47;102280.16;;;9.40;98.26
21781;BME280;52576;53.614;9.894;2023-10-08T07:02:51;102278.34;;;9.42;98.10
21781;BME280;52576;53.614;9.894;2023-10-08T07:04:56;102272.16;;;9.44;98.02
21781;BME280;52576;53.614;9.894;2023-10-08T07:07:00;102272.88;;;9.48;98.12
21781;BME280;52576;53.614;9.894;2023-10-08T07:09:06;102265.72;;;9.53;97.99
21781;BME280;52576;53.614;9.894;2023-10-08T07:11:15;102273.47;;;9.56;98.07
21781;BME280;52576;53.614;9.894;2023-10-08T07:13:20;102275.97;;;9.59;97.99
21781;BME280;52576;53.614;9.894;2023-10-08T07:15:24;102279.22;;;9.64;98.01
21781;BME280;52576;53.614;9.894;2023-10-08T07:17:28;102277.41;;;9.66;97.89
21781;BME280;52576;53.614;9.894;2023-10-08T07:19:42;102275.47;;;9.71;97.56
21781;BME280;52576;53.614;9.894;2023-10-08T07:21:49;102273.59;;;9.75;97.46
21781;BME280;52576;53.614;9.894;2023-10-08T07:23:56;102278.66;;;9.79;97.60
21781;BME280;52576;53.614;9.894;2023-10-08T07:26:03;102282.84;;;9.83;97.51
21781;BME280;52576;53.614;9.894;2023-10-08T07:28:12;102290.59;;;9.86;97.48
21781;BME280;52576;53.614;9.894;2023-10-08T07:30:15;102282.53;;;9.91;97.23
21781;BME280;52576;53.614;9.894;2023-10-08T07:32:28;102290.19;;;9.96;97.29
21781;BME280;52576;53.614;9.894;2023-10-08T07:34:33;102297.88;;;10.00;97.11
21781;BME280;52576;53.614;9.894;2023-10-08T07:36:41;102301.19;;;10.05;97.05
21781;BME280;52576;53.614;9.894;2023-10-08T07:38:43;102301.91;;;10.09;96.56
21781;BME280;52576;53.614;9.894;2023-10-08T07:40:47;102301.63;;;10.15;96.30
21781;BME280;52576;53.614;9.894;2023-10-08T07:42:51;102305.00;;;10.18;95.87
21781;BME280;52576;53.614;9.894;2023-10-08T07:44:55;102310.06;;;10.23;95.23
21781;BME280;52576;53.614;9.894;2023-10-08T07:46:58;102313.38;;;10.28;94.88
21781;BME280;52576;53.614;9.894;2023-10-08T07:49:01;102321.00;;;10.34;94.45
21781;BME280;52576;53.614;9.894;2023-10-08T07:51:05;102323.50;;;10.37;93.96
21781;BME280;52576;53.614;9.894;2023-10-08T07:53:09;102319.78;;;10.41;93.77
21781;BME280;52576;53.614;9.894;2023-10-08T07:55:19;102330.16;;;10.44;93.58
21781;BME280;52576;53.614;9.894;2023-10-08T07:57:23;102330.88;;;10.48;92.94
21781;BME280;52576;53.614;9.894;2023-10-08T07:59:30;102330.69;;;10.52;91.95
21781;BME280;52576;53.614;9.894;2023-10-08T08:01:34;102330.50;;;10.57;91.48
21781;BME280;52576;53.614;9.894;2023-10-08T08:03:37;102332.94;;;10.62;91.22
21781;BME280;52576;53.614;9.894;2023-10-08T08:05:40;102327.56;;;10.65;90.93
21781;BME280;52576;53.614;9.894;2023-10-08T08:07:43;102323.03;;;10.68;90.72
21781;BME280;52576;53.614;9.894;2023-10-08T08:09:49;102323.75;;;10.72;89.89
21781;BME280;52576;53.614;9.894;2023-10-08T08:11:54;102334.13;;;10.75;88.69
21781;BME280;52576;53.614;9.894;2023-10-08T08:13:59;102341.84;;;10.78;87.22
21781;BME280;52576;53.614;9.894;2023-10-08T08:16:04;102340.81;;;10.82;86.40
21781;BME280;52576;53.614;9.894;2023-10-08T08:18:18;102337.16;;;10.86;86.68
21781;BME280;52576;53.614;9.894;2023-10-08T08:20:25;102340.44;;;10.91;86.64
21781;BME280;52576;53.614;9.894;2023-10-08T08:22:37;102348.00;;;10.97;86.47
21781;BME280;52576;53.614;9.894;2023-10-08T08:24:42;102349.59;;;11.01;86.23
21781;BME280;52576;53.614;9.894;2023-10-08T08:26:47;102347.63;;;11.06;85.31
21781;BME280;52576;53.614;9.894;2023-10-08T08:29:03;102353.53;;;11.11;84.62
21781;BME280;52576;53.614;9.894;2023-10-08T08:31:07;102353.31;;;11.16;83.59
21781;BME280;52576;53.614;9.894;2023-10-08T08:33:16;102361.88;;;11.19;82.67
21781;BME280;52576;53.614;9.894;2023-10-08T08:35:25;102369.44;;;11.27;82.64
21781;BME280;52576;53.614;9.894;2023-10-08T08:37:28;102366.63;;;11.32;82.01
21781;BME280;52576;53.614;9.894;2023-10-08T08:39:32;102370.75;;;11.37;82.05
21781;BME280;52576;53.614;9.894;2023-10-08T08:41:37;102376.72;;;11.41;81.65
21781;BME280;52576;53.614;9.894;2023-10-08T08:43:41;102381.66;;;11.47;80.81
21781;BME280;52576;53.614;9.894;2023-10-08T08:45:46;102377.97;;;11.51;80.17
21781;BME280;52576;53.614;9.894;2023-10-08T08:47:53;102378.56;;;11.57;80.10
21781;BME280;52576;53.614;9.894;2023-10-08T08:49:58;102386.09;;;11.65;79.86
21781;BME280;52576;53.614;9.894;2023-10-08T08:52:10;102384.09;;;11.70;79.87
21781;BME280;52576;53.614;9.894;2023-10-08T08:54:14;102387.38;;;11.75;79.89
21781;BME280;52576;53.614;9.894;2023-10-08T08:56:18;102387.19;;;11.80;78.84
21781;BME280;52576;53.614;9.894;2023-10-08T08:58:21;102395.78;;;11.83;78.38
21781;BME280;52576;53.614;9.894;2023-10-08T09:00:24;102389.41;;;11.89;78.05
21781;BME280;52576;53.614;9.894;2023-10-08T09:02:30;102389.94;;;11.96;77.69
21781;BME280;52576;53.614;9.894;2023-10-08T09:04:35;102393.22;;;12.01;77.57
21781;BME280;52576;53.614;9.894;2023-10-08T09:06:39;102392.94;;;12.07;77.02
21781;BME280;52576;53.614;9.894;2023-10-08T09:08:42;102397.06;;;12.12;76.55
21781;BME280;52576;53.614;9.894;2023-10-08T09:10:47;102395.00;;;12.19;76.83
21781;BME280;52576;53.614;9.894;2023-10-08T09:12:54;102392.06;;;12.25;76.74
21781;BME280;52576;53.614;9.894;2023-10-08T09:15:01;102400.56;;;12.30;75.77
21781;BME280;52576;53.614;9.894;2023-10-08T09:17:06;102393.31;;;12.35;74.92
21781;BME280;52576;53.614;9.894;2023-10-08T09:19:09;102394.88;;;12.39;75.57
21781;BME280;52576;53.614;9.894;2023-10-08T09:21:19;102403.41;;;12.44;74.63
21781;BME280;52576;53.614;9.894;2023-10-08T09:23:24;102387.38;;;12.49;73.72
21781;BME280;52576;53.614;9.894;2023-10-08T09:25:27;102402.88;;;12.55;73.10
21781;BME280;52576;53.614;9.894;2023-10-08T09:27:35;102400.78;;;12.62;72.45
21781;BME280;52576;53.614;9.894;2023-10-08T09:29:39;102411.72;;;12.71;72.37
21781;BME280;52576;53.614;9.894;2023-10-08T09:31:51;102404.19;;;12.81;71.70
21781;BME280;52576;53.614;9.894;2023-10-08T09:33:57;102413.50;;;12.88;70.85
21781;BME280;52576;53.614;9.894;2023-10-08T09:36:01;102415.81;;;12.94;70.23
21781;BME280;52576;53.614;9.894;2023-10-08T09:38:08;102416.34;;;13.01;70.11
21781;BME280;52576;53.614;9.894;2023-10-08T09:40:13;102423.78;;;13.10;70.10
21781;BME280;52576;53.614;9.894;2023-10-08T09:42:22;102420.81;;;13.17;68.95
21781;BME280;52576;53.614;9.894;2023-10-08T09:44:26;102421.34;;;13.24;68.22
21781;BME280;52576;53.614;9.894;2023-10-08T09:46:30;102418.44;;;13.29;67.35
21781;BME280;52576;53.614;9.894;2023-10-08T09:48:37;102425.25;;;13.33;67.37
21781;BME280;52576;53.614;9.894;2023-10-08T09:50:41;102419.84;;;13.36;65.93
21781;BME280;52576;53.614;9.894;2023-10-08T09:52:49;102426.81;;;13.37;65.68
21781;BME280;52576;53.614;9.894;2023-10-08T09:55:01;102428.50;;;13.38;65.30
21781;BME280;52576;53.614;9.894;2023-10-08T09:57:05;102423.84;;;13.43;65.46
21781;BME280;52576;53.614;9.894;2023-10-08T09:59:09;102426.34;;;13.46;65.73
21781;BME280;52576;53.614;9.894;2023-10-08T10:01:12;102415.66;;;13.49;65.50
21781;BME280;52576;53.614;9.894;2023-10-08T10:03:16;102418.00;;;13.53;65.64
21781;BME280;52576;53.614;9.894;2023-10-08T10:05:21;102417.84;;;13.56;65.72
21781;BME280;52576;53.614;9.894;2023-10-08T10:07:26;102426.44;;;13.60;65.91
21781;BME280;52576;53.614;9.894;2023-10-08T10:09:31;102441.16;;;13.64;66.00
21781;BME280;52576;53.614;9.894;2023-10-08T10:11:39;102431.31;;;13.68;65.86
21781;BME280;52576;53.614;9.894;2023-10-08T10:13:44;102432.00;;;13.71;65.34
21781;BME280;52576;53.614;9.894;2023-10-08T10:15:49;102444.09;;;13.75;65.45
21781;BME280;52576;53.614;9.894;2023-10-08T10:17:52;102438.63;;;13.78;65.78
21781;BME280;52576;53.614;9.894;2023-10-08T10:20:00;102429.63;;;13.82;65.45
21781;BME280;52576;53.614;9.894;2023-10-08T10:22:03;102426.50;;;13.91;65.78
21781;BME280;52576;53.614;9.894;2023-10-08T10:24:22;102439.19;;;14.01;65.44
21781;BME280;52576;53.614;9.894;2023-10-08T10:26:27;102443.16;;;14.08;65.46
21781;BME280;52576;53.614;9.894;2023-10-08T10:28:34;102450.91;;;14.11;65.98
21781;BME280;52576;53.614;9.894;2023-10-08T10:30:39;102448.19;;;14.12;65.10
21781;BME280;52576;53.614;9.894;2023-10-08T10:32:44;102441.31;;;14.10;64.57
21781;BME280;52576;53.614;9.894;2023-10-08T10:34:48;102431.84;;;14.06;64.26
21781;BME280;52576;53.614;9.894;2023-10-08T10:36:55;102433.72;;;14.04;65.28
21781;BME280;52576;53.614;9.894;2023-10-08T10:39:00;102425.56;;;14.08;65.74
21781;BME280;52576;53.614;9.894;2023-10-08T10:41:17;102430.41;;;14.16;65.63
21781;BME280;52576;53.614;9.894;2023-10-08T10:43:23;102433.41;;;14.25;64.87
21781;BME280;52576;53.614;9.894;2023-10-08T10:45:35;102423.34;;;14.32;64.72
21781;BME280;52576;53.614;9.894;2023-10-08T10:47:38;102420.78;;;14.31;63.73
21781;BME280;52576;53.614;9.894;2023-10-08T10:49:49;102427.28;;;14.25;63.88
21781;BME280;52576;53.614;9.894;2023-10-08T10:51:55;102420.47;;;14.21;64.74
21781;BME280;52576;53.614;9.894;2023-10-08T10:53:59;102406.53;;;14.19;65.55
21781;BME280;52576;53.614;9.894;2023-10-08T10:56:13;102405.75;;;14.17;65.13
21781;BME280;52576;53.614;9.894;2023-10-08T10:58:20;102406.69;;;14.16;65.94
21781;BME280;52576;53.614;9.894;2023-10-08T11:00:26;102402.25;;;14.16;65.49
21781;BME280;52576;53.614;9.894;2023-10-08T11:02:48;102404.66;;;14.21;65.39
21781;BME280;52576;53.614;9.894;2023-10-08T11:04:52;102398.09;;;14.28;65.30
21781;BME280;52576;53.614;9.894;2023-10-08T11:06:55;102400.38;;;14.34;63.88